sensor_id;sensor_type;location;lat;lon;timestamp;temperature;humidity
17954;DHT22;9102;53.548;9.926;2023-05-10T00:02:07;14.30;93.80
17954;DHT22;9102;53.548;9.926;2023-05-10T00:04:35;14.30;94.70
17954;DHT22;9102;53.548;9.926;2023-05-10T00:07:01;14.30;95.50
17954;DHT22;9102;53.548;9.926;2023-05-10T00:09:30;14.30;96.50
17954;DHT22;9102;53.548;9.926;2023-05-10T00:11:58;14.30;97.20
17954;DHT22;9102;53.548;9.926;2023-05-10T00:14:25;14.30;97.90
17954;DHT22;9102;53.548;9.926;2023-05-10T00:16:52;14.20;98.90
17954;DHT22;9102;53.548;9.926;2023-05-10T00:19:19;14.20;99.10
17954;DHT22;9102;53.548;9.926;2023-05-10T00:21:46;14.20;99.90
17954;DHT22;9102;53.548;9.926;2023-05-10T00:24:13;14.10;99.90
17954;DHT22;9102;53.548;9.926;2023-05-10T00:26:40;14.10;99.90
17954;DHT22;9102;53.548;9.926;2023-05-10T00:29:09;14.10;99.90
17954;DHT22;9102;53.548;9.926;2023-05-10T00:31:35;14.00;99.90
17954;DHT22;9102;53.548;9.926;2023-05-10T00:34:02;13.90;99.90
17954;DHT22;9102;53.548;9.926;2023-05-10T00:36:30;14.00;99.90
17954;DHT22;9102;53.548;9.926;2023-05-10T00:38:57;13.90;99.90
17954;DHT22;9102;53.548;9.926;2023-05-10T00:41:24;13.90;99.90
17954;DHT22;9102;53.548;9.926;2023-05-10T00:43:51;13.90;99.90
17954;DHT22;9102;53.548;9.926;2023-05-10T00:46:19;13.80;99.90
17954;DHT22;9102;53.548;9.926;2023-05-10T00:48:47;13.80;99.90
17954;DHT22;9102;53.548;9.926;2023-05-10T00:51:14;13.80;99.90
17954;DHT22;9102;53.548;9.926;2023-05-10T00:53:41;13.80;99.90
17954;DHT22;9102;53.548;9.926;2023-05-10T00:56:09;13.70;99.90
17954;DHT22;9102;53.548;9.926;2023-05-10T00:58:36;13.70;99.90
17954;DHT22;9102;53.548;9.926;2023-05-10T01:01:04;13.70;99.90
17954;DHT22;9102;53.548;9.926;2023-05-10T01:03:33;13.60;99.90
17954;DHT22;9102;53.548;9.926;2023-05-10T01:06:00;13.60;99.90
17954;DHT22;9102;53.548;9.926;2023-05-10T01:08:27;13.70;99.90
17954;DHT22;9102;53.548;9.926;2023-05-10T01:10:55;13.60;99.90
17954;DHT22;9102;53.548;9.926;2023-05-10T01:13:31;13.60;99.90
17954;DHT22;9102;53.548;9.926;2023-05-10T01:15:59;13.50;99.90
17954;DHT22;9102;53.548;9.926;2023-05-10T01:18:29;13.50;99.90
17954;DHT22;9102;53.548;9.926;2023-05-10T01:21:09;13.50;99.90
17954;DHT22;9102;53.548;9.926;2023-05-10T01:23:58;13.40;99.90
17954;DHT22;9102;53.548;9.926;2023-05-10T01:26:57;13.40;99.90
17954;DHT22;9102;53.548;9.926;2023-05-10T01:30:01;13.40;99.90
17954;DHT22;9102;53.548;9.926;2023-05-10T01:32:34;13.30;99.90
17954;DHT22;9102;53.548;9.926;2023-05-10T01:35:05;13.30;99.90
17954;DHT22;9102;53.548;9.926;2023-05-10T01:37:40;13.30;99.90
17954;DHT22;9102;53.548;9.926;2023-05-10T01:40:17;13.30;99.90
17954;DHT22;9102;53.548;9.926;2023-05-10T01:42:51;13.30;99.90
17954;DHT22;9102;53.548;9.926;2023-05-10T01:45:28;13.30;99.90
17954;DHT22;9102;53.548;9.926;2023-05-10T01:48:05;13.20;99.90
17954;DHT22;9102;53.548;9.926;2023-05-10T01:50:32;13.20;99.90
17954;DHT22;9102;53.548;9.926;2023-05-10T01:53:02;13.20;99.90
17954;DHT22;9102;53.548;9.926;2023-05-10T01:55:32;13.20;99.90
17954;DHT22;9102;53.548;9.926;2023-05-10T01:58:03;13.20;99.90
17954;DHT22;9102;53.548;9.926;2023-05-10T02:00:31;13.20;99.90
17954;DHT22;9102;53.548;9.926;2023-05-10T02:03:05;13.10;99.90
17954;DHT22;9102;53.548;9.926;2023-05-10T02:05:33;13.10;99.90
17954;DHT22;9102;53.548;9.926;2023-05-10T02:08:03;13.20;99.90
17954;DHT22;9102;53.548;9.926;2023-05-10T02:10:32;13.10;99.90
17954;DHT22;9102;53.548;9.926;2023-05-10T02:13:02;13.10;99.90
17954;DHT22;9102;53.548;9.926;2023-05-10T02:15:30;13.10;99.90
17954;DHT22;9102;53.548;9.926;2023-05-10T02:17:59;13.10;99.90
17954;DHT22;9102;53.548;9.926;2023-05-10T02:20:29;13.10;99.90
17954;DHT22;9102;53.548;9.926;2023-05-10T02:22:58;13.10;99.90
17954;DHT22;9102;53.548;9.926;2023-05-10T02:25:27;13.10;99.90
17954;DHT22;9102;53.548;9.926;2023-05-10T02:27:56;13.00;99.90
17954;DHT22;9102;53.548;9.926;2023-05-10T02:30:23;13.00;99.90
17954;DHT22;9102;53.548;9.926;2023-05-10T02:32:51;13.00;99.90
17954;DHT22;9102;53.548;9.926;2023-05-10T02:35:19;13.00;99.90
17954;DHT22;9102;53.548;9.926;2023-05-10T02:37:47;13.00;99.90
17954;DHT22;9102;53.548;9.926;2023-05-10T02:40:15;13.00;99.90
17954;DHT22;9102;53.548;9.926;2023-05-10T02:42:44;12.90;99.90
17954;DHT22;9102;53.548;9.926;2023-05-10T02:45:15;12.90;99.90
17954;DHT22;9102;53.548;9.926;2023-05-10T02:47:44;12.80;99.90
17954;DHT22;9102;53.548;9.926;2023-05-10T02:50:11;12.80;99.90
17954;DHT22;9102;53.548;9.926;2023-05-10T02:52:40;12.80;99.90
17954;DHT22;9102;53.548;9.926;2023-05-10T02:55:14;12.80;99.90
17954;DHT22;9102;53.548;9.926;2023-05-10T02:57:45;12.70;99.90
17954;DHT22;9102;53.548;9.926;2023-05-10T03:00:13;12.70;99.90
17954;DHT22;9102;53.548;9.926;2023-05-10T03:02:41;12.70;99.90
17954;DHT22;9102;53.548;9.926;2023-05-10T03:05:08;12.60;99.90
17954;DHT22;9102;53.548;9.926;2023-05-10T03:07:35;12.70;99.90
17954;DHT22;9102;53.548;9.926;2023-05-10T03:10:03;12.60;99.90
17954;DHT22;9102;53.548;9.926;2023-05-10T03:12:41;12.60;99.90
17954;DHT22;9102;53.548;9.926;2023-05-10T03:15:16;12.70;99.90
17954;DHT22;9102;53.548;9.926;2023-05-10T03:17:50;12.60;99.90
17954;DHT22;9102;53.548;9.926;2023-05-10T03:20:23;12.60;99.90
17954;DHT22;9102;53.548;9.926;2023-05-10T03:22:55;12.60;99.90
17954;DHT22;9102;53.548;9.926;2023-05-10T03:25:23;12.60;99.90
17954;DHT22;9102;53.548;9.926;2023-05-10T03:27:52;12.60;99.90
17954;DHT22;9102;53.548;9.926;2023-05-10T03:30:19;12.50;99.90
17954;DHT22;9102;53.548;9.926;2023-05-10T03:32:46;12.50;99.90
17954;DHT22;9102;53.548;9.926;2023-05-10T03:35:14;12.50;99.90
17954;DHT22;9102;53.548;9.926;2023-05-10T03:37:41;12.50;99.90
17954;DHT22;9102;53.548;9.926;2023-05-10T03:40:08;12.50;99.90
17954;DHT22;9102;53.548;9.926;2023-05-10T03:42:36;12.50;99.90
17954;DHT22;9102;53.548;9.926;2023-05-10T03:45:05;12.50;99.90
17954;DHT22;9102;53.548;9.926;2023-05-10T03:47:32;12.50;99.90
17954;DHT22;9102;53.548;9.926;2023-05-10T03:49:59;12.50;99.90
17954;DHT22;9102;53.548;9.926;2023-05-10T03:52:27;12.50;99.90
17954;DHT22;9102;53.548;9.926;2023-05-10T03:54:53;12.50;99.90
17954;DHT22;9102;53.548;9.926;2023-05-10T03:57:20;12.40;99.90
17954;DHT22;9102;53.548;9.926;2023-05-10T03:59:48;12.40;99.90
17954;DHT22;9102;53.548;9.926;2023-05-10T04:02:17;12.40;99.90
17954;DHT22;9102;53.548;9.926;2023-05-10T04:04:44;12.50;99.90
17954;DHT22;9102;53.548;9.926;2023-05-10T04:07:10;12.40;99.90
17954;DHT22;9102;53.548;9.926;2023-05-10T04:09:37;12.40;99.90
17954;DHT22;9102;53.548;9.926;2023-05-10T04:12:04;12.40;99.90
17954;DHT22;9102;53.548;9.926;2023-05-10T04:14:31;12.50;99.90
17954;DHT22;9102;53.548;9.926;2023-05-10T04:16:58;12.40;99.90
17954;DHT22;9102;53.548;9.926;2023-05-10T04:19:30;12.50;99.90
17954;DHT22;9102;53.548;9.926;2023-05-10T04:21:57;12.50;99.90
17954;DHT22;9102;53.548;9.926;2023-05-10T04:24:24;12.50;99.90
17954;DHT22;9102;53.548;9.926;2023-05-10T04:26:51;12.50;99.90
17954;DHT22;9102;53.548;9.926;2023-05-10T04:29:18;12.50;99.90
17954;DHT22;9102;53.548;9.926;2023-05-10T04:31:45;12.60;99.90
17954;DHT22;9102;53.548;9.926;2023-05-10T04:34:12;12.50;99.90
17954;DHT22;9102;53.548;9.926;2023-05-10T04:36:40;12.50;99.90
17954;DHT22;9102;53.548;9.926;2023-05-10T04:39:07;12.50;99.90
17954;DHT22;9102;53.548;9.926;2023-05-10T04:41:35;12.50;99.90
17954;DHT22;9102;53.548;9.926;2023-05-10T04:44:02;12.50;99.90
17954;DHT22;9102;53.548;9.926;2023-05-10T04:46:28;12.60;99.90
17954;DHT22;9102;53.548;9.926;2023-05-10T04:48:55;12.50;99.90
17954;DHT22;9102;53.548;9.926;2023-05-10T04:51:22;12.60;99.90
17954;DHT22;9102;53.548;9.926;2023-05-10T04:53:50;12.60;99.90
17954;DHT22;9102;53.548;9.926;2023-05-10T04:56:17;12.60;99.90
17954;DHT22;9102;53.548;9.926;2023-05-10T04:58:44;12.60;99.90
17954;DHT22;9102;53.548;9.926;2023-05-10T05:01:11;12.60;99.90
17954;DHT22;9102;53.548;9.926;2023-05-10T05:03:38;12.70;99.90
17954;DHT22;9102;53.548;9.926;2023-05-10T05:06:05;12.70;99.90
17954;DHT22;9102;53.548;9.926;2023-05-10T05:08:32;12.80;99.90
17954;DHT22;9102;53.548;9.926;2023-05-10T05:11:00;12.80;99.90
17954;DHT22;9102;53.548;9.926;2023-05-10T05:13:27;12.90;99.90
17954;DHT22;9102;53.548;9.926;2023-05-10T05:15:54;12.80;99.90
17954;DHT22;9102;53.548;9.926;2023-05-10T05:18:24;12.80;99.90
17954;DHT22;9102;53.548;9.926;2023-05-10T05:20:51;13.00;99.90
17954;DHT22;9102;53.548;9.926;2023-05-10T05:23:18;12.80;99.90
17954;DHT22;9102;53.548;9.926;2023-05-10T05:25:46;12.90;99.90
17954;DHT22;9102;53.548;9.926;2023-05-10T05:28:14;12.90;99.90
17954;DHT22;9102;53.548;9.926;2023-05-10T05:30:41;12.90;99.90
17954;DHT22;9102;53.548;9.926;2023-05-10T05:33:08;13.10;99.90
17954;DHT22;9102;53.548;9.926;2023-05-10T05:35:35;13.10;99.90
17954;DHT22;9102;53.548;9.926;2023-05-10T05:38:03;13.30;99.90
17954;DHT22;9102;53.548;9.926;2023-05-10T05:40:30;13.30;99.90
17954;DHT22;9102;53.548;9.926;2023-05-10T05:42:58;13.40;99.90
17954;DHT22;9102;53.548;9.926;2023-05-10T05:45:27;13.40;99.90
17954;DHT22;9102;53.548;9.926;2023-05-10T05:47:54;13.30;99.90
17954;DHT22;9102;53.548;9.926;2023-05-10T05:50:21;13.40;99.90
17954;DHT22;9102;53.548;9.926;2023-05-10T05:52:48;13.50;99.90
17954;DHT22;9102;53.548;9.926;2023-05-10T05:55:15;13.40;99.90
17954;DHT22;9102;53.548;9.926;2023-05-10T05:57:42;13.60;99.90
17954;DHT22;9102;53.548;9.926;2023-05-10T06:00:10;13.70;99.90
17954;DHT22;9102;53.548;9.926;2023-05-10T06:02:38;13.70;99.90
17954;DHT22;9102;53.548;9.926;2023-05-10T06:05:06;13.80;99.90
17954;DHT22;9102;53.548;9.926;2023-05-10T06:07:33;13.80;99.90
17954;DHT22;9102;53.548;9.926;2023-05-10T06:10:00;14.00;99.90
17954;DHT22;9102;53.548;9.926;2023-05-10T06:12:28;14.20;99.90
17954;DHT22;9102;53.548;9.926;2023-05-10T06:14:55;14.20;99.90
17954;DHT22;9102;53.548;9.926;2023-05-10T06:17:21;14.20;99.90
17954;DHT22;9102;53.548;9.926;2023-05-10T06:19:50;14.10;99.90
17954;DHT22;9102;53.548;9.926;2023-05-10T06:22:18;14.10;99.90
17954;DHT22;9102;53.548;9.926;2023-05-10T06:24:44;14.10;99.90
17954;DHT22;9102;53.548;9.926;2023-05-10T06:27:11;14.00;99.90
17954;DHT22;9102;53.548;9.926;2023-05-10T06:29:38;14.20;99.90
17954;DHT22;9102;53.548;9.926;2023-05-10T06:32:05;14.10;99.90
17954;DHT22;9102;53.548;9.926;2023-05-10T06:34:32;14.00;99.90
17954;DHT22;9102;53.548;9.926;2023-05-10T06:37:00;14.10;99.90
17954;DHT22;9102;53.548;9.926;2023-05-10T06:39:28;14.20;99.90
17954;DHT22;9102;53.548;9.926;2023-05-10T06:41:55;14.30;99.90
17954;DHT22;9102;53.548;9.926;2023-05-10T06:44:22;14.40;99.90
17954;DHT22;9102;53.548;9.926;2023-05-10T06:46:49;14.50;99.90
17954;DHT22;9102;53.548;9.926;2023-05-10T06:49:18;14.30;99.90
17954;DHT22;9102;53.548;9.926;2023-05-10T06:51:44;14.40;99.90
17954;DHT22;9102;53.548;9.926;2023-05-10T06:54:12;14.60;99.90
17954;DHT22;9102;53.548;9.926;2023-05-10T06:56:39;14.80;99.90
17954;DHT22;9102;53.548;9.926;2023-05-10T06:59:06;15.10;99.90
17954;DHT22;9102;53.548;9.926;2023-05-10T07:01:33;15.30;99.90
17954;DHT22;9102;53.548;9.926;2023-05-10T07:04:00;15.30;99.90
17954;DHT22;9102;53.548;9.926;2023-05-10T07:06:27;15.60;99.90
17954;DHT22;9102;53.548;9.926;2023-05-10T07:08:57;15.90;99.90
17954;DHT22;9102;53.548;9.926;2023-05-10T07:11:27;15.80;99.90
17954;DHT22;9102;53.548;9.926;2023-05-10T07:13:54;15.90;99.90
17954;DHT22;9102;53.548;9.926;2023-05-10T07:16:24;16.10;99.90
17954;DHT22;9102;53.548;9.926;2023-05-10T07:18:51;16.10;99.90
17954;DHT22;9102;53.548;9.926;2023-05-10T07:21:19;16.00;99.90
17954;DHT22;9102;53.548;9.926;2023-05-10T07:23:49;15.90;99.90
17954;DHT22;9102;53.548;9.926;2023-05-10T07:26:17;16.00;99.90
17954;DHT22;9102;53.548;9.926;2023-05-10T07:28:45;16.20;99.90
17954;DHT22;9102;53.548;9.926;2023-05-10T07:31:12;16.40;99.90
17954;DHT22;9102;53.548;9.926;2023-05-10T07:33:40;16.30;99.90
17954;DHT22;9102;53.548;9.926;2023-05-10T07:36:07;16.20;99.90
17954;DHT22;9102;53.548;9.926;2023-05-10T07:38:34;16.00;99.90
17954;DHT22;9102;53.548;9.926;2023-05-10T07:41:00;16.00;99.90
17954;DHT22;9102;53.548;9.926;2023-05-10T07:43:27;15.90;99.90
17954;DHT22;9102;53.548;9.926;2023-05-10T07:45:55;16.00;99.90
17954;DHT22;9102;53.548;9.926;2023-05-10T07:48:23;16.20;99.90
17954;DHT22;9102;53.548;9.926;2023-05-10T07:50:49;16.10;99.90
17954;DHT22;9102;53.548;9.926;2023-05-10T07:53:16;16.30;99.90
17954;DHT22;9102;53.548;9.926;2023-05-10T07:55:44;16.50;99.90
17954;DHT22;9102;53.548;9.926;2023-05-10T07:58:11;16.70;99.90
17954;DHT22;9102;53.548;9.926;2023-05-10T08:00:38;16.70;99.90
17954;DHT22;9102;53.548;9.926;2023-05-10T08:03:08;16.90;99.90
17954;DHT22;9102;53.548;9.926;2023-05-10T08:05:34;16.90;99.90
17954;DHT22;9102;53.548;9.926;2023-05-10T08:08:01;17.10;99.90
17954;DHT22;9102;53.548;9.926;2023-05-10T08:10:28;16.90;99.90
17954;DHT22;9102;53.548;9.926;2023-05-10T08:12:55;16.80;99.90
17954;DHT22;9102;53.548;9.926;2023-05-10T08:15:23;16.70;99.90
17954;DHT22;9102;53.548;9.926;2023-05-10T08:17:51;16.90;99.90
17954;DHT22;9102;53.548;9.926;2023-05-10T08:20:19;17.00;99.90
17954;DHT22;9102;53.548;9.926;2023-05-10T08:22:46;17.10;99.90
17954;DHT22;9102;53.548;9.926;2023-05-10T08:25:13;17.20;99.90
17954;DHT22;9102;53.548;9.926;2023-05-10T08:27:39;17.30;99.90
17954;DHT22;9102;53.548;9.926;2023-05-10T08:30:07;17.50;99.90
17954;DHT22;9102;53.548;9.926;2023-05-10T08:32:34;17.60;99.90
17954;DHT22;9102;53.548;9.926;2023-05-10T08:35:03;17.70;99.90
17954;DHT22;9102;53.548;9.926;2023-05-10T08:37:32;17.80;99.90
17954;DHT22;9102;53.548;9.926;2023-05-10T08:39:59;17.90;99.90
17954;DHT22;9102;53.548;9.926;2023-05-10T08:42:30;17.80;99.90
17954;DHT22;9102;53.548;9.926;2023-05-10T08:44:57;17.70;99.90
17954;DHT22;9102;53.548;9.926;2023-05-10T08:47:26;17.90;99.90
17954;DHT22;9102;53.548;9.926;2023-05-10T08:49:54;18.00;99.90
17954;DHT22;9102;53.548;9.926;2023-05-10T08:52:22;18.00;99.90
17954;DHT22;9102;53.548;9.926;2023-05-10T08:54:53;18.10;99.90
17954;DHT22;9102;53.548;9.926;2023-05-10T08:57:20;18.20;99.90
17954;DHT22;9102;53.548;9.926;2023-05-10T08:59:46;18.30;99.90
17954;DHT22;9102;53.548;9.926;2023-05-10T09:02:14;18.00;99.90
17954;DHT22;9102;53.548;9.926;2023-05-10T09:04:40;18.00;99.90
17954;DHT22;9102;53.548;9.926;2023-05-10T09:07:07;18.00;99.90
17954;DHT22;9102;53.548;9.926;2023-05-10T09:09:35;18.20;99.90
17954;DHT22;9102;53.548;9.926;2023-05-10T09:12:04;18.30;99.90
17954;DHT22;9102;53.548;9.926;2023-05-10T09:14:34;18.40;99.90
17954;DHT22;9102;53.548;9.926;2023-05-10T09:17:02;18.60;99.90
17954;DHT22;9102;53.548;9.926;2023-05-10T09:19:29;18.60;99.90
17954;DHT22;9102;53.548;9.926;2023-05-10T09:21:55;18.50;99.90
17954;DHT22;9102;53.548;9.926;2023-05-10T09:24:25;18.30;99.90
17954;DHT22;9102;53.548;9.926;2023-05-10T09:26:53;18.20;99.90
17954;DHT22;9102;53.548;9.926;2023-05-10T09:29:21;18.10;99.90
17954;DHT22;9102;53.548;9.926;2023-05-10T09:31:50;18.10;99.90
17954;DHT22;9102;53.548;9.926;2023-05-10T09:34:22;17.90;99.90
17954;DHT22;9102;53.548;9.926;2023-05-10T09:36:55;17.80;99.90
17954;DHT22;9102;53.548;9.926;2023-05-10T09:39:30;17.40;99.90
17954;DHT22;9102;53.548;9.926;2023-05-10T09:41:58;17.30;99.90
17954;DHT22;9102;53.548;9.926;2023-05-10T09:44:27;17.40;99.90
17954;DHT22;9102;53.548;9.926;2023-05-10T09:46:54;17.10;99.90
17954;DHT22;9102;53.548;9.926;2023-05-10T09:49:21;16.90;99.90
17954;DHT22;9102;53.548;9.926;2023-05-10T09:52:00;16.70;99.90
17954;DHT22;9102;53.548;9.926;2023-05-10T09:54:26;16.60;99.90
17954;DHT22;9102;53.548;9.926;2023-05-10T09:56:53;16.50;99.90
17954;DHT22;9102;53.548;9.926;2023-05-10T09:59:20;16.30;99.90
17954;DHT22;9102;53.548;9.926;2023-05-10T10:01:51;16.00;99.90
17954;DHT22;9102;53.548;9.926;2023-05-10T10:04:18;15.80;99.90
17954;DHT22;9102;53.548;9.926;2023-05-10T10:06:46;15.50;99.90
17954;DHT22;9102;53.548;9.926;2023-05-10T10:09:14;15.40;99.90
17954;DHT22;9102;53.548;9.926;2023-05-10T10:11:41;15.30;99.90
17954;DHT22;9102;53.548;9.926;2023-05-10T10:14:07;15.40;99.90
17954;DHT22;9102;53.548;9.926;2023-05-10T10:16:34;15.20;99.90
17954;DHT22;9102;53.548;9.926;2023-05-10T10:19:03;15.10;99.90
17954;DHT22;9102;53.548;9.926;2023-05-10T10:21:30;14.80;99.90
17954;DHT22;9102;53.548;9.926;2023-05-10T10:23:57;14.50;99.90
17954;DHT22;9102;53.548;9.926;2023-05-10T10:26:24;14.40;99.90
17954;DHT22;9102;53.548;9.926;2023-05-10T10:29:00;14.30;99.90
17954;DHT22;9102;53.548;9.926;2023-05-10T10:31:36;14.30;99.90
17954;DHT22;9102;53.548;9.926;2023-05-10T10:34:08;14.30;99.90
17954;DHT22;9102;53.548;9.926;2023-05-10T10:36:44;14.30;99.90
17954;DHT22;9102;53.548;9.926;2023-05-10T10:39:12;14.40;99.90
17954;DHT22;9102;53.548;9.926;2023-05-10T10:41:40;14.50;99.90
17954;DHT22;9102;53.548;9.926;2023-05-10T10:44:25;14.70;99.90
17954;DHT22;9102;53.548;9.926;2023-05-10T10:47:03;14.70;99.90
17954;DHT22;9102;53.548;9.926;2023-05-10T10:49:33;14.70;99.90
17954;DHT22;9102;53.548;9.926;2023-05-10T10:52:13;15.00;99.90
17954;DHT22;9102;53.548;9.926;2023-05-10T10:54:41;14.90;99.90
17954;DHT22;9102;53.548;9.926;2023-05-10T10:57:11;14.90;99.90
17954;DHT22;9102;53.548;9.926;2023-05-10T10:59:41;14.80;99.90
17954;DHT22;9102;53.548;9.926;2023-05-10T11:02:09;14.90;99.90
17954;DHT22;9102;53.548;9.926;2023-05-10T11:04:44;14.80;99.90
17954;DHT22;9102;53.548;9.926;2023-05-10T11:07:17;14.80;99.90
17954;DHT22;9102;53.548;9.926;2023-05-10T11:09:46;14.70;99.90
17954;DHT22;9102;53.548;9.926;2023-05-10T11:12:13;14.80;99.90
17954;DHT22;9102;53.548;9.926;2023-05-10T11:14:40;14.90;99.90
17954;DHT22;9102;53.548;9.926;2023-05-10T11:17:22;15.00;99.90
17954;DHT22;9102;53.548;9.926;2023-05-10T11:20:09;15.10;99.90
17954;DHT22;9102;53.548;9.926;2023-05-10T11:22:51;15.20;99.90
17954;DHT22;9102;53.548;9.926;2023-05-10T11:25:19;15.20;99.90
17954;DHT22;9102;53.548;9.926;2023-05-10T11:27:47;15.20;99.90
17954;DHT22;9102;53.548;9.926;2023-05-10T11:30:14;15.20;99.90
17954;DHT22;9102;53.548;9.926;2023-05-10T11:32:41;15.10;99.90
17954;DHT22;9102;53.548;9.926;2023-05-10T11:35:10;15.10;99.90
17954;DHT22;9102;53.548;9.926;2023-05-10T11:37:38;15.10;99.90
17954;DHT22;9102;53.548;9.926;2023-05-10T11:40:07;15.10;99.90
17954;DHT22;9102;53.548;9.926;2023-05-10T11:42:36;15.10;99.90
17954;DHT22;9102;53.548;9.926;2023-05-10T11:45:04;15.00;99.90
17954;DHT22;9102;53.548;9.926;2023-05-10T11:47:31;14.90;99.90
17954;DHT22;9102;53.548;9.926;2023-05-10T11:49:58;14.90;99.90
17954;DHT22;9102;53.548;9.926;2023-05-10T11:52:26;14.80;99.90
17954;DHT22;9102;53.548;9.926;2023-05-10T11:54:54;14.90;99.90
17954;DHT22;9102;53.548;9.926;2023-05-10T11:57:26;14.80;99.90
17954;DHT22;9102;53.548;9.926;2023-05-10T11:59:54;14.90;99.90
17954;DHT22;9102;53.548;9.926;2023-05-10T12:02:21;14.70;99.90
17954;DHT22;9102;53.548;9.926;2023-05-10T12:04:48;14.80;99.90
17954;DHT22;9102;53.548;9.926;2023-05-10T12:07:16;15.00;99.90
17954;DHT22;9102;53.548;9.926;2023-05-10T12:09:44;15.10;99.90
17954;DHT22;9102;53.548;9.926;2023-05-10T12:12:16;15.10;99.90
17954;DHT22;9102;53.548;9.926;2023-05-10T12:14:43;15.20;99.90
17954;DHT22;9102;53.548;9.926;2023-05-10T12:17:11;15.30;99.90
17954;DHT22;9102;53.548;9.926;2023-05-10T12:19:39;15.40;99.90
17954;DHT22;9102;53.548;9.926;2023-05-10T12:22:06;15.40;99.90
17954;DHT22;9102;53.548;9.926;2023-05-10T12:24:34;15.50;99.90
17954;DHT22;9102;53.548;9.926;2023-05-10T12:27:06;15.70;99.90
17954;DHT22;9102;53.548;9.926;2023-05-10T12:29:34;15.80;99.90
17954;DHT22;9102;53.548;9.926;2023-05-10T12:32:01;15.80;99.90
17954;DHT22;9102;53.548;9.926;2023-05-10T12:34:32;15.70;99.90
17954;DHT22;9102;53.548;9.926;2023-05-10T12:37:00;15.60;99.90
17954;DHT22;9102;53.548;9.926;2023-05-10T12:39:38;15.60;99.90
17954;DHT22;9102;53.548;9.926;2023-05-10T12:42:06;15.80;99.90
17954;DHT22;9102;53.548;9.926;2023-05-10T12:44:33;15.70;99.90
17954;DHT22;9102;53.548;9.926;2023-05-10T12:47:00;15.80;99.90
17954;DHT22;9102;53.548;9.926;2023-05-10T12:49:27;16.00;99.90
17954;DHT22;9102;53.548;9.926;2023-05-10T12:51:53;15.90;99.90
17954;DHT22;9102;53.548;9.926;2023-05-10T12:54:20;16.00;99.90
17954;DHT22;9102;53.548;9.926;2023-05-10T12:56:47;16.20;99.90
17954;DHT22;9102;53.548;9.926;2023-05-10T12:59:15;16.30;99.90
17954;DHT22;9102;53.548;9.926;2023-05-10T13:01:42;16.00;99.90
17954;DHT22;9102;53.548;9.926;2023-05-10T13:04:09;16.20;99.90
17954;DHT22;9102;53.548;9.926;2023-05-10T13:06:36;16.30;99.90
17954;DHT22;9102;53.548;9.926;2023-05-10T13:09:03;16.20;99.90
17954;DHT22;9102;53.548;9.926;2023-05-10T13:11:30;16.10;99.90
17954;DHT22;9102;53.548;9.926;2023-05-10T13:13:57;16.20;99.90
17954;DHT22;9102;53.548;9.926;2023-05-10T13:16:25;16.10;99.90
17954;DHT22;9102;53.548;9.926;2023-05-10T13:18:52;16.30;99.90
17954;DHT22;9102;53.548;9.926;2023-05-10T13:21:19;16.30;99.90
17954;DHT22;9102;53.548;9.926;2023-05-10T13:23:45;16.00;99.90
17954;DHT22;9102;53.548;9.926;2023-05-10T13:26:12;16.30;99.90
17954;DHT22;9102;53.548;9.926;2023-05-10T13:28:40;16.30;99.90
17954;DHT22;9102;53.548;9.926;2023-05-10T13:31:07;16.60;99.90
17954;DHT22;9102;53.548;9.926;2023-05-10T13:33:35;16.90;99.90
17954;DHT22;9102;53.548;9.926;2023-05-10T13:36:02;17.10;99.90
17954;DHT22;9102;53.548;9.926;2023-05-10T13:38:28;17.30;99.90
17954;DHT22;9102;53.548;9.926;2023-05-10T13:40:55;17.30;99.90
17954;DHT22;9102;53.548;9.926;2023-05-10T13:43:23;17.20;99.90
17954;DHT22;9102;53.548;9.926;2023-05-10T13:45:50;17.10;99.90
17954;DHT22;9102;53.548;9.926;2023-05-10T13:48:17;17.20;99.90
17954;DHT22;9102;53.548;9.926;2023-05-10T13:50:45;17.30;99.90
17954;DHT22;9102;53.548;9.926;2023-05-10T13:53:12;17.20;99.90
17954;DHT22;9102;53.548;9.926;2023-05-10T13:55:39;17.10;99.90
17954;DHT22;9102;53.548;9.926;2023-05-10T13:58:06;17.30;99.90
17954;DHT22;9102;53.548;9.926;2023-05-10T14:00:33;17.80;99.90
17954;DHT22;9102;53.548;9.926;2023-05-10T14:03:00;17.70;99.90
17954;DHT22;9102;53.548;9.926;2023-05-10T14:05:27;18.00;99.90
17954;DHT22;9102;53.548;9.926;2023-05-10T14:07:55;17.80;99.90
17954;DHT22;9102;53.548;9.926;2023-05-10T14:10:22;17.60;99.90
17954;DHT22;9102;53.548;9.926;2023-05-10T14:12:49;17.40;99.90
17954;DHT22;9102;53.548;9.926;2023-05-10T14:15:16;17.40;99.90
17954;DHT22;9102;53.548;9.926;2023-05-10T14:17:43;17.20;99.90
17954;DHT22;9102;53.548;9.926;2023-05-10T14:20:11;17.50;99.90
17954;DHT22;9102;53.548;9.926;2023-05-10T14:22:38;17.80;99.90
17954;DHT22;9102;53.548;9.926;2023-05-10T14:25:07;17.90;99.90
17954;DHT22;9102;53.548;9.926;2023-05-10T14:27:37;17.70;99.90
17954;DHT22;9102;53.548;9.926;2023-05-10T14:30:05;17.80;99.90
17954;DHT22;9102;53.548;9.926;2023-05-10T14:32:32;17.70;99.90
17954;DHT22;9102;53.548;9.926;2023-05-10T14:34:59;17.60;99.90
17954;DHT22;9102;53.548;9.926;2023-05-10T14:37:26;17.60;99.90
17954;DHT22;9102;53.548;9.926;2023-05-10T14:39:55;17.60;99.90
17954;DHT22;9102;53.548;9.926;2023-05-10T14:42:24;17.50;99.90
17954;DHT22;9102;53.548;9.926;2023-05-10T14:44:51;17.30;99.90
17954;DHT22;9102;53.548;9.926;2023-05-10T14:47:17;17.40;99.90
17954;DHT22;9102;53.548;9.926;2023-05-10T14:49:44;17.30;99.90
17954;DHT22;9102;53.548;9.926;2023-05-10T14:52:11;17.30;99.90
17954;DHT22;9102;53.548;9.926;2023-05-10T14:54:39;17.20;99.90
17954;DHT22;9102;53.548;9.926;2023-05-10T14:57:06;17.10;99.90
17954;DHT22;9102;53.548;9.926;2023-05-10T14:59:34;16.90;99.90
17954;DHT22;9102;53.548;9.926;2023-05-10T15:02:01;16.80;99.90
17954;DHT22;9102;53.548;9.926;2023-05-10T15:04:28;16.60;99.90
17954;DHT22;9102;53.548;9.926;2023-05-10T15:06:55;16.50;99.90
17954;DHT22;9102;53.548;9.926;2023-05-10T15:09:24;16.50;99.90
17954;DHT22;9102;53.548;9.926;2023-05-10T15:11:51;16.60;99.90
17954;DHT22;9102;53.548;9.926;2023-05-10T15:14:18;16.70;99.90
17954;DHT22;9102;53.548;9.926;2023-05-10T15:16:46;17.00;99.90
17954;DHT22;9102;53.548;9.926;2023-05-10T15:19:13;17.10;99.90
17954;DHT22;9102;53.548;9.926;2023-05-10T15:21:40;17.20;99.90
17954;DHT22;9102;53.548;9.926;2023-05-10T15:24:09;17.20;99.90
17954;DHT22;9102;53.548;9.926;2023-05-10T15:26:36;17.00;99.90
17954;DHT22;9102;53.548;9.926;2023-05-10T15:29:03;16.90;99.90
17954;DHT22;9102;53.548;9.926;2023-05-10T15:31:30;16.90;99.90
17954;DHT22;9102;53.548;9.926;2023-05-10T15:34:01;16.80;99.90
17954;DHT22;9102;53.548;9.926;2023-05-10T15:36:28;16.80;99.90
17954;DHT22;9102;53.548;9.926;2023-05-10T15:38:55;16.80;99.90
17954;DHT22;9102;53.548;9.926;2023-05-10T15:41:22;16.80;99.90
17954;DHT22;9102;53.548;9.926;2023-05-10T15:43:50;16.70;99.90
17954;DHT22;9102;53.548;9.926;2023-05-10T15:46:16;16.70;99.90
17954;DHT22;9102;53.548;9.926;2023-05-10T15:48:43;16.60;99.90
17954;DHT22;9102;53.548;9.926;2023-05-10T15:51:12;16.40;99.90
17954;DHT22;9102;53.548;9.926;2023-05-10T15:53:39;16.20;99.90